^^
Saratoga-Weather Station Historical Data
Daily Summary for August 27, 2021 Units:  English    Metric   Both
Daily Weekly Monthly Yearly Custom
  High: Low: Average:
Temperature: 64.2 °F 46 °F 54 °F
Dew Point: 50.5 °F 44.4 °F 47.1 °F
Humidity: 95% 55% 79%
Wind Speed: 13mph 0mph 4mph
Wind Gust: 17mph - -
Wind- - West
Pressure: 30.2 in 30 in -
Precipitation: 0 in    
Historical Graphs
 
 
Tabular Data for August 27, 2021
Time Temperature Dew Point Pressure Wind Wind Speed Wind Gust Humidity Rainfall Rate (Hourly) solar
00:01 48.2 °F 46 °F 30 in West 4 mph 10 mph 92% 0 in 0 W/m2
00:06 48 °F 45.9 °F 30 in WSW 4 mph 9 mph 92% 0 in 0 W/m2
00:11 48 °F 45.9 °F 30 in WNW 2.9 mph 10 mph 92% 0 in 0 W/m2
00:16 48 °F 45.9 °F 30 in WNW 2.9 mph 8 mph 92% 0 in 0 W/m2
00:21 47.8 °F 45.7 °F 30 in West 0.9 mph 8 mph 92% 0 in 0 W/m2
00:26 47.8 °F 45.7 °F 30 in West 8.1 mph 9 mph 92% 0 in 0 W/m2
00:31 47.8 °F 45.7 °F 30 in West 2 mph 7 mph 92% 0 in 0 W/m2
00:36 47.8 °F 45.7 °F 30 in Calm   10 mph 92% 0 in 0 W/m2
00:41 47.7 °F 45.5 °F 30 in WNW 2 mph 6 mph 92% 0 in 0 W/m2
00:46 47.7 °F 45.5 °F 30 in West 6.9 mph 7 mph 92% 0 in 0 W/m2
00:51 47.5 °F 45.3 °F 30 in SSE 8.9 mph 9 mph 92% 0 in 0 W/m2
00:56 47.5 °F 45.3 °F 30 in NW 2.9 mph 9 mph 92% 0 in 0 W/m2
01:01 47.1 °F 45.1 °F 30 in West 2.9 mph 6 mph 93% 0 in 0 W/m2
01:06 47.1 °F 45.1 °F 30 in WNW 2 mph 8 mph 93% 0 in 0 W/m2
01:11 47.1 °F 45.1 °F 30 in WSW 4.9 mph 13 mph 93% 0 in 0 W/m2
01:16 47.1 °F 45.1 °F 30 in NNW 2 mph 9 mph 93% 0 in 0 W/m2
01:21 46.9 °F 45 °F 30 in West 6.9 mph 10 mph 93% 0 in 0 W/m2
01:26 46.9 °F 45.3 °F 30 in West 2.9 mph 7 mph 94% 0 in 0 W/m2
01:31 46.9 °F 45 °F 30 in NW 4 mph 4 mph 93% 0 in 0 W/m2
01:36 46.9 °F 45 °F 30 in NW 2.9 mph 8 mph 93% 0 in 0 W/m2
01:41 46.8 °F 44.8 °F 30 in West 6 mph 8 mph 93% 0 in 0 W/m2
01:46 46.8 °F 44.8 °F 30 in NW 2 mph 7 mph 93% 0 in 0 W/m2
01:51 46.6 °F 45 °F 30 in SW 2.9 mph 4 mph 94% 0 in 0 W/m2
01:56 46.4 °F 44.8 °F 30 in West 8.1 mph 10 mph 94% 0 in 0 W/m2
02:01 46.2 °F 44.6 °F 30 in WNW 2.9 mph 11 mph 94% 0 in 0 W/m2
02:06 46.2 °F 44.6 °F 30 in WNW 2 mph 7 mph 94% 0 in 0 W/m2
02:11 46.4 °F 44.8 °F 30 in WSW 4 mph 11 mph 94% 0 in 0 W/m2
02:16 46.4 °F 44.8 °F 30 in WNW 2.9 mph 8 mph 94% 0 in 0 W/m2
02:21 46.4 °F 44.8 °F 30 in West 6 mph 7 mph 94% 0 in 0 W/m2
02:26 46.6 °F 45 °F 30 in WSW 6.9 mph 7 mph 94% 0 in 0 W/m2
02:31 46.6 °F 45 °F 30 in West 6 mph 8 mph 94% 0 in 0 W/m2
02:36 46.6 °F 45 °F 30 in WNW 2 mph 6 mph 94% 0 in 0 W/m2
02:41 46.8 °F 45.1 °F 30 in West 4 mph 7 mph 94% 0 in 0 W/m2
02:46 46.8 °F 45.1 °F 30 in WNW 2 mph 6 mph 94% 0 in 0 W/m2
02:51 46.8 °F 45.1 °F 30 in WNW 2.9 mph 6 mph 94% 0 in 0 W/m2
02:56 46.9 °F 45.3 °F 30 in WNW 0.9 mph 4 mph 94% 0 in 0 W/m2
03:01 46.9 °F 45.3 °F 30 in West 2 mph 7 mph 94% 0 in 0 W/m2
03:06 46.9 °F 45.3 °F 30 in SW 4.9 mph 7 mph 94% 0 in 0 W/m2
03:11 46.9 °F 45.3 °F 30 in West 2.9 mph 3 mph 94% 0 in 0 W/m2
03:16 46.8 °F 45.1 °F 30 in WNW 2 mph 6 mph 94% 0 in 0 W/m2
03:21 46.8 °F 44.8 °F 30 in West 2.9 mph 3 mph 93% 0 in 0 W/m2
03:26 46.8 °F 45.1 °F 30 in West 4 mph 6 mph 94% 0 in 0 W/m2
03:31 46.8 °F 45.1 °F 30 in WSW 2 mph 5 mph 94% 0 in 0 W/m2
03:36 46.8 °F 45.1 °F 30 in West 2.9 mph 5 mph 94% 0 in 0 W/m2
03:41 46.8 °F 45.1 °F 30 in Calm   6 mph 94% 0 in 0 W/m2
03:46 46.8 °F 45.1 °F 30 in West 2 mph 4 mph 94% 0 in 0 W/m2
03:51 46.8 °F 45.1 °F 30 in WNW 2.9 mph 4 mph 94% 0 in 0 W/m2
03:56 46.9 °F 45.3 °F 30 in West 0.9 mph 6 mph 94% 0 in 0 W/m2
04:01 46.9 °F 45.3 °F 30 in West 0.9 mph 2 mph 94% 0 in 0 W/m2
04:06 46.9 °F 45.3 °F 30 in West 0.9 mph 4 mph 94% 0 in 0 W/m2
04:11 46.9 °F 45.3 °F 30 in West 2 mph 4 mph 94% 0 in 0 W/m2
04:16 46.9 °F 45.3 °F 30 in WSW 2.9 mph 4 mph 94% 0 in 0 W/m2
04:21 46.9 °F 45.3 °F 30 in WNW 0.9 mph 2 mph 94% 0 in 0 W/m2
04:26 46.9 °F 45.3 °F 30 in West 0.9 mph 4 mph 94% 0 in 0 W/m2
04:31 46.8 °F 45.1 °F 30 in WSW 4 mph 10 mph 94% 0 in 0 W/m2
04:36 46.8 °F 45.1 °F 30 in West 2.9 mph 4 mph 94% 0 in 0 W/m2
04:41 46.8 °F 45.1 °F 30 in SSW 4.9 mph 6 mph 94% 0 in 0 W/m2
04:46 46.6 °F 45 °F 30 in WNW 2.9 mph 7 mph 94% 0 in 0 W/m2
04:51 46.4 °F 44.8 °F 30 in West 6 mph 7 mph 94% 0 in 0 W/m2
04:56 46.2 °F 44.6 °F 30 in West 2.9 mph 3 mph 94% 0 in 0 W/m2
05:01 46.2 °F 44.6 °F 30 in West 6 mph 6 mph 94% 0 in 0 W/m2
05:06 46 °F 44.4 °F 30 in West 6 mph 6 mph 94% 0 in 0 W/m2
05:11 46 °F 44.4 °F 30 in West 8.1 mph 10 mph 94% 0 in 0 W/m2
05:16 46 °F 44.4 °F 30 in NW 4 mph 9 mph 94% 0 in 0 W/m2
05:21 46 °F 44.4 °F 30 in WNW 4.9 mph 14 mph 94% 0 in 0 W/m2
05:26 46 °F 44.4 °F 30 in WSW 6.9 mph 10 mph 94% 0 in 0 W/m2
05:31 46 °F 44.4 °F 30 in SW 4.9 mph 11 mph 94% 0 in 0 W/m2
05:36 46 °F 44.4 °F 30 in West 4 mph 9 mph 94% 0 in 0 W/m2
05:41 46 °F 44.4 °F 30 in WNW 2.9 mph 7 mph 94% 0 in 0 W/m2
05:46 46 °F 44.4 °F 30 in WNW 2.9 mph 7 mph 94% 0 in 5 W/m2
05:51 46 °F 44.4 °F 30 in WNW 4 mph 4 mph 94% 0 in 7 W/m2
05:56 46 °F 44.6 °F 30 in WSW 4.9 mph 9 mph 95% 0 in 9 W/m2
06:01 46.2 °F 44.8 °F 30 in West 4 mph 14 mph 95% 0 in 11 W/m2
06:06 46.2 °F 44.8 °F 30 in WSW 2 mph 8 mph 95% 0 in 14 W/m2
06:11 46.2 °F 44.8 °F 30 in West 6.9 mph 11 mph 95% 0 in 18 W/m2
06:16 46.2 °F 44.6 °F 30 in WNW 2.9 mph 7 mph 94% 0 in 14 W/m2
06:21 46.2 °F 44.6 °F 30.1 in WSW 4.9 mph 10 mph 94% 0 in 14 W/m2
06:26 46.2 °F 44.6 °F 30.1 in WNW 2 mph 7 mph 94% 0 in 19 W/m2
06:31 46.2 °F 44.6 °F 30.1 in WNW 2.9 mph 10 mph 94% 0 in 19 W/m2
06:36 46.2 °F 44.6 °F 30.1 in WNW 2.9 mph 9 mph 94% 0 in 18 W/m2
06:41 46.2 °F 44.6 °F 30.1 in West 6.9 mph 8 mph 94% 0 in 18 W/m2
06:46 46.2 °F 44.6 °F 30.1 in WSW 6 mph 7 mph 94% 0 in 23 W/m2
06:51 46.2 °F 44.6 °F 30.1 in West 6.9 mph 10 mph 94% 0 in 40 W/m2
06:56 46 °F 44.4 °F 30.1 in WNW 4 mph 8 mph 94% 0 in 37 W/m2
07:01 46.2 °F 44.6 °F 30.1 in WSW 2 mph 10 mph 94% 0 in 39 W/m2
07:06 46.2 °F 44.6 °F 30.1 in NW 2 mph 8 mph 94% 0 in 49 W/m2
07:11 46 °F 44.4 °F 30.1 in NW 4.9 mph 9 mph 94% 0 in 39 W/m2
07:16 46 °F 44.4 °F 30.1 in West 8.1 mph 8 mph 94% 0 in 49 W/m2
07:21 46 °F 44.4 °F 30.1 in WNW 0.9 mph 6 mph 94% 0 in 65 W/m2
07:26 46 °F 44.4 °F 30.1 in WSW 8.1 mph 9 mph 94% 0 in 74 W/m2
07:31 46 °F 44.4 °F 30.1 in West 2.9 mph 8 mph 94% 0 in 83 W/m2
07:36 46 °F 44.4 °F 30.1 in WNW 0.9 mph 7 mph 94% 0 in 90 W/m2
07:41 46.2 °F 44.6 °F 30.1 in West 2 mph 4 mph 94% 0 in 93 W/m2
07:46 46.6 °F 45 °F 30.1 in WNW 2 mph 6 mph 94% 0 in 97 W/m2
07:52 46.6 °F 44.6 °F 30.1 in SW 0.9 mph 4 mph 93% 0 in 104 W/m2
07:57 46.8 °F 44.8 °F 30.1 in Calm   2 mph 93% 0 in 113 W/m2
08:02 46.9 °F 45 °F 30.1 in West 2 mph 4 mph 93% 0 in 114 W/m2
08:07 46.9 °F 45 °F 30.1 in Calm   2 mph 93% 0 in 118 W/m2
08:12 47.1 °F 45 °F 30.1 in NW 0.9 mph 3 mph 92% 0 in 125 W/m2
08:17 47.5 °F 45.3 °F 30.1 in West 4 mph 4 mph 92% 0 in 123 W/m2
08:22 47.5 °F 45.3 °F 30.1 in WSW 2 mph 3 mph 92% 0 in 116 W/m2
08:27 47.7 °F 45.5 °F 30.1 in Calm   2 mph 92% 0 in 116 W/m2
08:32 47.8 °F 45.3 °F 30.1 in Calm   3 mph 91% 0 in 121 W/m2
08:37 48 °F 45.5 °F 30.1 in WNW 2 mph 7 mph 91% 0 in 139 W/m2
08:42 48.2 °F 45.7 °F 30.1 in SW 2 mph 4 mph 91% 0 in 158 W/m2
08:47 48.4 °F 45.9 °F 30.1 in NW 2.9 mph 7 mph 91% 0 in 156 W/m2
08:52 48.6 °F 45.7 °F 30.1 in NW 0.9 mph 3 mph 90% 0 in 169 W/m2
08:57 48.6 °F 45.7 °F 30.1 in WSW 6.9 mph 8 mph 90% 0 in 183 W/m2
09:02 48.7 °F 45.7 °F 30.1 in West 4 mph 6 mph 89% 0 in 181 W/m2
09:07 48.9 °F 45.9 °F 30.1 in WSW 0.9 mph 8 mph 89% 0 in 192 W/m2
09:12 48.9 °F 45.9 °F 30.1 in WSW 2.9 mph 5 mph 89% 0 in 197 W/m2
09:17 49.1 °F 45.7 °F 30.1 in NW 2.9 mph 7 mph 88% 0 in 199 W/m2
09:22 49.3 °F 45.9 °F 30.1 in West 0.9 mph 8 mph 88% 0 in 206 W/m2
09:27 49.5 °F 46 °F 30.1 in NW 4 mph 7 mph 88% 0 in 216 W/m2
09:32 49.6 °F 46.2 °F 30.1 in West 2 mph 6 mph 88% 0 in 220 W/m2
09:37 49.6 °F 45.9 °F 30.1 in WSW 2 mph 3 mph 87% 0 in 239 W/m2
09:42 50 °F 46.2 °F 30.1 in WSW 4 mph 9 mph 87% 0 in 243 W/m2
09:47 50.2 °F 46.4 °F 30.1 in Calm   3 mph 87% 0 in 246 W/m2
09:52 50.4 °F 46.6 °F 30.1 in Calm   1 mph 87% 0 in 244 W/m2
09:57 50.7 °F 46.8 °F 30.1 in WNW 2.9 mph 7 mph 86% 0 in 192 W/m2
10:02 50.9 °F 46.9 °F 30.1 in West 0.9 mph 3 mph 86% 0 in 260 W/m2
10:07 51.4 °F 47.1 °F 30.1 in West 8.1 mph 13 mph 85% 0 in 434 W/m2
10:12 52 °F 47.3 °F 30.1 in West 4 mph 6 mph 84% 0 in 485 W/m2
10:17 52.3 °F 47.3 °F 30.1 in NW 4 mph 13 mph 83% 0 in 343 W/m2
10:22 52.7 °F 47.1 °F 30.1 in North 4 mph 8 mph 81% 0 in 656 W/m2
10:27 53.2 °F 47.5 °F 30.1 in WNW 2.9 mph 9 mph 81% 0 in 752 W/m2
10:32 53.8 °F 47.5 °F 30.1 in NW 8.1 mph 9 mph 79% 0 in 775 W/m2
10:37 54.3 °F 48.6 °F 30.1 in NW 4.9 mph 7 mph 81% 0 in 854 W/m2
10:42 54.5 °F 47.8 °F 30.1 in SW 6.9 mph 9 mph 78% 0 in 348 W/m2
10:47 54.3 °F 48 °F 30.1 in West 6.9 mph 7 mph 79% 0 in 279 W/m2
10:52 54.3 °F 48 °F 30.1 in West 0.9 mph 6 mph 79% 0 in 251 W/m2
10:57 54.1 °F 47.5 °F 30.1 in WNW 4 mph 10 mph 78% 0 in 329 W/m2
11:02 54.3 °F 48 °F 30.1 in WSW 2 mph 6 mph 79% 0 in 332 W/m2
11:07 54.5 °F 48.2 °F 30.1 in West 6 mph 7 mph 79% 0 in 322 W/m2
11:12 54.7 °F 48 °F 30.1 in WNW 6.9 mph 9 mph 78% 0 in 257 W/m2
11:17 54.1 °F 47.5 °F 30.1 in West 8.1 mph 9 mph 78% 0 in 227 W/m2
11:22 54 °F 47.3 °F 30.1 in WNW 4 mph 9 mph 78% 0 in 251 W/m2
11:27 54 °F 48 °F 30.1 in NW 4 mph 7 mph 80% 0 in 308 W/m2
11:32 54.3 °F 47.7 °F 30.1 in WSW 6.9 mph 12 mph 78% 0 in 302 W/m2
11:37 54.3 °F 47.7 °F 30.1 in NW 4 mph 7 mph 78% 0 in 162 W/m2
11:42 54.5 °F 47.8 °F 30.1 in WSW 4.9 mph 12 mph 78% 0 in 137 W/m2
11:47 54.5 °F 48.2 °F 30.1 in WNW 2.9 mph 4 mph 79% 0 in 341 W/m2
11:52 54.7 °F 48.4 °F 30.1 in NW 2 mph 7 mph 79% 0 in 364 W/m2
11:57 55 °F 48.6 °F 30.1 in WSW 4 mph 11 mph 79% 0 in 448 W/m2
12:02 55.6 °F 48.9 °F 30.1 in NNW 0.9 mph 7 mph 78% 0 in 923 W/m2
12:07 56.1 °F 48.7 °F 30.1 in West 6 mph 11 mph 76% 0 in 192 W/m2
12:12 56.5 °F 48.9 °F 30.1 in WNW 4.9 mph 8 mph 76% 0 in 1000 W/m2
12:17 57.2 °F 48.6 °F 30.1 in West 6 mph 11 mph 73% 0 in 1021 W/m2
12:22 57.4 °F 48.4 °F 30.1 in West 6.9 mph 12 mph 72% 0 in 294 W/m2
12:27 57.7 °F 49.1 °F 30.1 in NW 2.9 mph 5 mph 73% 0 in 234 W/m2
12:32 58.1 °F 48.7 °F 30.1 in West 2.9 mph 8 mph 71% 0 in 997 W/m2
12:37 58.6 °F 48.2 °F 30.1 in West 10.1 mph 11 mph 68% 0 in 1109 W/m2
12:42 58.3 °F 48.2 °F 30.1 in West 2.9 mph 9 mph 69% 0 in 415 W/m2
12:47 58.6 °F 48.9 °F 30.1 in NNW 2 mph 8 mph 70% 0 in 1113 W/m2
12:52 59 °F 49.3 °F 30.1 in West 6.9 mph 9 mph 70% 0 in 309 W/m2
12:57 58.8 °F 48.7 °F 30.1 in WNW 4 mph 10 mph 69% 0 in 359 W/m2
13:02 58.8 °F 48.2 °F 30.1 in WNW 8.9 mph 12 mph 68% 0 in 237 W/m2
13:07 58.3 °F 48.2 °F 30.1 in WSW 4 mph 13 mph 69% 0 in 251 W/m2
13:12 57.9 °F 48.2 °F 30.1 in NW 4 mph 9 mph 70% 0 in 271 W/m2
13:17 57.9 °F 48.6 °F 30.1 in WNW 8.1 mph 9 mph 71% 0 in 169 W/m2
13:22 57.7 °F 48.4 °F 30.1 in WNW 4.9 mph 10 mph 71% 0 in 246 W/m2
13:27 57.9 °F 49.3 °F 30.1 in WNW 6.9 mph 10 mph 73% 0 in 1018 W/m2
13:32 57.9 °F 48.2 °F 30.1 in WNW 6.9 mph 12 mph 70% 0 in 977 W/m2
13:37 58.5 °F 49.5 °F 30.1 in West 6 mph 9 mph 72% 0 in 951 W/m2
13:42 59 °F 49.6 °F 30.1 in NNW 6 mph 12 mph 71% 0 in 967 W/m2
13:47 59.4 °F 50 °F 30.1 in NNW 4.9 mph 11 mph 71% 0 in 949 W/m2
13:52 59.5 °F 50.2 °F 30.1 in WNW 11 mph 11 mph 71% 0 in 988 W/m2
13:57 59.7 °F 49.5 °F 30.1 in West 8.1 mph 14 mph 69% 0 in 1125 W/m2
14:02 60.3 °F 50 °F 30.1 in NW 6 mph 10 mph 69% 0 in 997 W/m2
14:07 60.8 °F 50.5 °F 30.1 in West 6.9 mph 14 mph 69% 0 in 1069 W/m2
14:12 61.3 °F 49.5 °F 30.1 in West 8.1 mph 8 mph 65% 0 in 1157 W/m2
14:17 61.9 °F 49.6 °F 30.1 in WNW 8.1 mph 14 mph 64% 0 in 1290 W/m2
14:22 62.4 °F 50.5 °F 30.1 in West 6.9 mph 9 mph 65% 0 in 956 W/m2
14:27 62.4 °F 49.3 °F 30.1 in West 4 mph 12 mph 62% 0 in 895 W/m2
14:32 61.9 °F 48.7 °F 30.1 in NW 4.9 mph 12 mph 62% 0 in 304 W/m2
14:37 61.5 °F 48.7 °F 30.1 in WNW 12.1 mph 12 mph 63% 0 in 304 W/m2
14:42 61.5 °F 48.4 °F 30.1 in NW 11 mph 12 mph 62% 0 in 1299 W/m2
14:47 61.9 °F 49.1 °F 30.1 in SW 6.9 mph 10 mph 63% 0 in 1299 W/m2
14:52 61.9 °F 48.2 °F 30.1 in NW 6 mph 12 mph 61% 0 in 431 W/m2
14:57 61.5 °F 48.4 °F 30.1 in West 4 mph 11 mph 62% 0 in 577 W/m2
15:02 61.9 °F 49.1 °F 30.1 in WNW 10.1 mph 11 mph 63% 0 in 816 W/m2
15:07 61.5 °F 48.7 °F 30.1 in SW 4.9 mph 11 mph 63% 0 in 531 W/m2
15:12 61.5 °F 48.7 °F 30.1 in WNW 8.1 mph 14 mph 63% 0 in 476 W/m2
15:17 61.2 °F 48 °F 30.1 in NW 13 mph 15 mph 62% 0 in 503 W/m2
15:22 61.2 °F 48.4 °F 30.1 in NNW 6 mph 10 mph 63% 0 in 541 W/m2
15:27 61.3 °F 49.1 °F 30.1 in West 6.9 mph 10 mph 64% 0 in 1018 W/m2
15:32 62.2 °F 48.6 °F 30.1 in West 4 mph 9 mph 61% 0 in 1004 W/m2
15:37 63 °F 48.9 °F 30.1 in WNW 4 mph 10 mph 60% 0 in 833 W/m2
15:42 63.1 °F 49.1 °F 30.1 in WNW 6 mph 10 mph 60% 0 in 960 W/m2
15:47 63.1 °F 48.2 °F 30.1 in West 6 mph 13 mph 58% 0 in 471 W/m2
15:52 63.3 °F 48.4 °F 30.1 in West 8.9 mph 12 mph 58% 0 in 990 W/m2
15:57 63.1 °F 47.1 °F 30.1 in West 6.9 mph 15 mph 56% 0 in 213 W/m2
16:02 62.8 °F 47.3 °F 30.1 in NW 4 mph 12 mph 57% 0 in 1000 W/m2
16:07 63 °F 48.4 °F 30.1 in North 2 mph 8 mph 59% 0 in 986 W/m2
16:12 63.9 °F 48.4 °F 30.1 in WSW 6.9 mph 12 mph 57% 0 in 925 W/m2
16:17 64 °F 47.5 °F 30.1 in NNE 4 mph 15 mph 55% 0 in 951 W/m2
16:22 64.2 °F 48.2 °F 30.1 in West 6 mph 10 mph 56% 0 in 954 W/m2
16:27 63.9 °F 48.4 °F 30.1 in WSW 10.1 mph 12 mph 57% 0 in 585 W/m2
16:32 63.5 °F 47.5 °F 30.1 in NW 4 mph 12 mph 56% 0 in 840 W/m2
16:37 63.7 °F 47.7 °F 30.1 in West 11 mph 17 mph 56% 0 in 777 W/m2
16:42 63.7 °F 48.2 °F 30.1 in West 6.9 mph 14 mph 57% 0 in 780 W/m2
16:47 62.8 °F 47.3 °F 30.1 in WNW 4 mph 16 mph 57% 0 in 420 W/m2
16:52 62.8 °F 49.1 °F 30.1 in NW 12.1 mph 12 mph 61% 0 in 752 W/m2
16:57 63 °F 48.4 °F 30.1 in WNW 10.1 mph 15 mph 59% 0 in 740 W/m2
17:02 63.1 °F 49.1 °F 30.1 in WNW 4.9 mph 11 mph 60% 0 in 761 W/m2
17:07 63.1 °F 48.6 °F 30.1 in NW 4 mph 15 mph 59% 0 in 824 W/m2
17:12 63.1 °F 48.2 °F 30.1 in NW 8.9 mph 13 mph 58% 0 in 311 W/m2
17:17 62.8 °F 48.2 °F 30.1 in NW 4 mph 9 mph 59% 0 in 557 W/m2
17:22 62.6 °F 47.7 °F 30.1 in WNW 4 mph 12 mph 58% 0 in 673 W/m2
17:27 63 °F 48.4 °F 30.1 in NNW 8.1 mph 11 mph 59% 0 in 673 W/m2
17:32 63.1 °F 48.6 °F 30.1 in WNW 2.9 mph 8 mph 59% 0 in 385 W/m2
17:37 63 °F 47.5 °F 30.1 in NNW 8.1 mph 10 mph 57% 0 in 251 W/m2
17:42 62.8 °F 46.9 °F 30.1 in NW 4 mph 8 mph 56% 0 in 278 W/m2
17:47 62.4 °F 46.9 °F 30.1 in WNW 8.1 mph 11 mph 57% 0 in 225 W/m2
17:52 62.2 °F 46.8 °F 30.1 in NW 2.9 mph 8 mph 57% 0 in 220 W/m2
17:57 62.4 °F 48.4 °F 30.1 in West 10.1 mph 11 mph 60% 0 in 227 W/m2
18:02 62.1 °F 48 °F 30.1 in WSW 4 mph 8 mph 60% 0 in 213 W/m2
18:07 62.1 °F 48.4 °F 30.1 in West 4 mph 11 mph 61% 0 in 221 W/m2
18:12 62.1 °F 48.4 °F 30.1 in WNW 2.9 mph 11 mph 61% 0 in 287 W/m2
18:17 62.1 °F 48.4 °F 30.1 in WNW 4 mph 11 mph 61% 0 in 172 W/m2
18:22 61.9 °F 48.7 °F 30.1 in WNW 2.9 mph 7 mph 62% 0 in 125 W/m2
18:27 61.5 °F 48.7 °F 30.1 in WNW 4 mph 7 mph 63% 0 in 125 W/m2
18:32 61.7 °F 48.9 °F 30.1 in WNW 6 mph 7 mph 63% 0 in 181 W/m2
18:37 61.9 °F 48.7 °F 30.1 in NW 2.9 mph 10 mph 62% 0 in 171 W/m2
18:42 62.1 °F 48.4 °F 30.1 in WNW 2 mph 4 mph 61% 0 in 162 W/m2
18:47 62.1 °F 48.9 °F 30.1 in WNW 4 mph 10 mph 62% 0 in 153 W/m2
18:52 62.2 °F 49.5 °F 30.1 in WSW 6 mph 7 mph 63% 0 in 380 W/m2
18:58 62.2 °F 49.1 °F 30.1 in WNW 2.9 mph 4 mph 62% 0 in 130 W/m2
19:03 62.2 °F 48.2 °F 30.1 in West 6 mph 9 mph 60% 0 in 320 W/m2
19:08 62.8 °F 48.2 °F 30.1 in WNW 4 mph 6 mph 59% 0 in 169 W/m2
19:13 63 °F 49.3 °F 30.1 in WNW 2 mph 10 mph 61% 0 in 297 W/m2
19:18 62.8 °F 49.1 °F 30.1 in WSW 4 mph 8 mph 61% 0 in 120 W/m2
19:23 62.1 °F 48.4 °F 30.1 in West 6 mph 10 mph 61% 0 in 111 W/m2
19:28 61.7 °F 48.6 °F 30.1 in West 2.9 mph 7 mph 62% 0 in 102 W/m2
19:33 61.3 °F 48.6 °F 30.1 in WNW 2 mph 9 mph 63% 0 in 84 W/m2
19:38 61.3 °F 49.5 °F 30.1 in West 2 mph 4 mph 65% 0 in 76 W/m2
19:43 61.2 °F 49.3 °F 30.1 in WNW 4 mph 6 mph 65% 0 in 72 W/m2
19:48 61 °F 49.5 °F 30.1 in NNW 4 mph 8 mph 66% 0 in 54 W/m2
19:53 60.6 °F 49.3 °F 30.1 in WSW 4 mph 6 mph 66% 0 in 44 W/m2
19:58 60.4 °F 49.5 °F 30.1 in WNW 2.9 mph 4 mph 67% 0 in 37 W/m2
20:03 60.3 °F 49.3 °F 30.1 in WSW 4 mph 8 mph 67% 0 in 40 W/m2
20:08 60.3 °F 49.6 °F 30.1 in WNW 2 mph 6 mph 68% 0 in 44 W/m2
20:13 60.1 °F 49.5 °F 30.1 in WNW 2 mph 8 mph 68% 0 in 120 W/m2
20:18 60.3 °F 49.6 °F 30.1 in West 6 mph 7 mph 68% 0 in 70 W/m2
20:23 60.3 °F 50 °F 30.1 in WSW 4 mph 4 mph 69% 0 in 125 W/m2
20:28 60.4 °F 50.2 °F 30.1 in West 2 mph 7 mph 69% 0 in 47 W/m2
20:33 60.4 °F 50.2 °F 30.1 in NW 4.9 mph 7 mph 69% 0 in 74 W/m2
20:38 60.4 °F 50.2 °F 30.1 in WNW 2.9 mph 5 mph 69% 0 in 72 W/m2
20:43 60.3 °F 50 °F 30.1 in WSW 6.9 mph 7 mph 69% 0 in 63 W/m2
20:48 60.3 °F 50 °F 30.1 in WNW 4 mph 4 mph 69% 0 in 53 W/m2
20:53 60.1 °F 50.2 °F 30.1 in West 2 mph 6 mph 70% 0 in 51 W/m2
20:58 60.1 °F 50.2 °F 30.1 in West 2.9 mph 6 mph 70% 0 in 44 W/m2
21:03 59.7 °F 50 °F 30.1 in WSW 2.9 mph 3 mph 70% 0 in 21 W/m2
21:08 59.4 °F 50 °F 30.1 in West 2 mph 6 mph 71% 0 in 14 W/m2
21:13 58.8 °F 49.5 °F 30.1 in WNW 2.9 mph 4 mph 71% 0 in 11 W/m2
21:18 58.5 °F 49.5 °F 30.1 in West 2.9 mph 4 mph 72% 0 in 7 W/m2
21:23 57.9 °F 49.3 °F 30.1 in WSW 2.9 mph 7 mph 73% 0 in 5 W/m2
21:28 57.7 °F 49.1 °F 30.1 in West 2 mph 3 mph 73% 0 in 0 W/m2
21:33 57.4 °F 48.7 °F 30.1 in Calm   7 mph 73% 0 in 0 W/m2
21:38 57 °F 48.7 °F 30.1 in West 2.9 mph 3 mph 74% 0 in 0 W/m2
21:43 56.8 °F 48.6 °F 30.1 in West 2.9 mph 4 mph 74% 0 in 0 W/m2
21:48 56.8 °F 48.6 °F 30.1 in West 2.9 mph 4 mph 74% 0 in 0 W/m2
21:53 56.7 °F 48.4 °F 30.1 in West 2 mph 2 mph 74% 0 in 0 W/m2
21:58 56.5 °F 48.7 °F 30.1 in Calm   1 mph 75% 0 in 0 W/m2
22:03 56.1 °F 48.7 °F 30.1 in West 2 mph 2 mph 76% 0 in 0 W/m2
22:08 55.8 °F 48.7 °F 30.1 in West 2 mph 4 mph 77% 0 in 0 W/m2
22:13 55.6 °F 48.6 °F 30.1 in West 0.9 mph 2 mph 77% 0 in 0 W/m2
22:18 55.6 °F 48.6 °F 30.1 in WNW 2 mph 4 mph 77% 0 in 0 W/m2
22:23 55.6 °F 48.6 °F 30.1 in West 2 mph 3 mph 77% 0 in 0 W/m2
22:28 55.4 °F 48.7 °F 30.1 in West 0.9 mph 1 mph 78% 0 in 0 W/m2
22:33 55.2 °F 48.6 °F 30.1 in Calm   3 mph 78% 0 in 0 W/m2
22:38 54.9 °F 48.6 °F 30.1 in West 0.9 mph 1 mph 79% 0 in 0 W/m2
22:43 54.3 °F 48.2 °F 30.1 in West 0.9 mph 1 mph 80% 0 in 0 W/m2
22:48 54 °F 48.2 °F 30.1 in Calm   1 mph 81% 0 in 0 W/m2
22:53 53.6 °F 48.2 °F 30.1 in West 2 mph 2 mph 82% 0 in 0 W/m2
22:58 53.2 °F 48.2 °F 30.1 in Calm   2 mph 83% 0 in 0 W/m2
23:03 53.1 °F 48 °F 30.1 in West 0.9 mph 1 mph 83% 0 in 0 W/m2
23:08 52.9 °F 48.2 °F 30.1 in Calm     84% 0 in 0 W/m2
23:13 52.5 °F 48.2 °F 30.1 in West 0.9 mph 2 mph 85% 0 in 0 W/m2
23:18 52.3 °F 48 °F 30.1 in West 0.9 mph 2 mph 85% 0 in 0 W/m2
23:23 52.2 °F 48 °F 30.1 in West 0.9 mph 2 mph 86% 0 in 0 W/m2
23:28 52 °F 47.8 °F 30.2 in WNW 0.9 mph 3 mph 86% 0 in 0 W/m2
23:33 52.3 °F 48.2 °F 30.2 in WNW 2 mph 2 mph 86% 0 in 0 W/m2
23:38 52.3 °F 48.2 °F 30.2 in WNW 2 mph 2 mph 86% 0 in 0 W/m2
23:43 52.3 °F 48.2 °F 30.2 in West 2 mph 3 mph 86% 0 in 0 W/m2
23:48 52.3 °F 48.2 °F 30.2 in West 0.9 mph 3 mph 86% 0 in 0 W/m2
23:53 52.3 °F 48 °F 30.2 in West 2 mph 3 mph 85% 0 in 0 W/m2
23:58 52.5 °F 48.2 °F 30.2 in WSW 2 mph 4 mph 85% 0 in 0 W/m2
Juneau County Weather
Compliments of Weather Underground - 4 mb